Grandin, North Dakota
Current Conditions -  °F | °C
As of 1:53 AM on Saturday 29 Nov 2014 (Local Time) from KFAR Reporting Station
Haze Haze  
Wind Chill:   Ceiling: 700
Heat Index: 22°   Visibility: 6mi
Dew Point: 18°   Wind: 15mph
Humidity: 85%   Direction: 160°SSE
Pressure: 29.5"   Gusts: NA
Location:  47.24°N, 97°W
Report Text: KFAR 290753Z AUTO 16013KT 6SM BR OVC007 M06/M08 A2950 RMK AO2 SLP005 T10561078 TSNO
Loading
Personal Weather Stations






























Interactive Weather Map New forecast layout! Learn more

10-Day Weather Forecast

Advertisements
Track Severe Weather on mobile